Time,TemperatureF,DewpointF,PressureIn,WindDirection,WindDirectionDegrees,WindSpeedMPH,WindSpeedGustMPH,Humidity,HourlyPrecipIn,Conditions,Clouds,dailyrainin,SoftwareType,DateUTC
2013-04-16 00:00:00,21.0,17.2,23.95,NE,54,2.7,2.7,85,0.00,,---,0.00,VWS V14.01,2013-04-16 06:00:00,
2013-04-16 00:05:00,21.0,17.2,23.95,ENE,74,2.7,3.6,85,0.00,,---,0.00,VWS V14.01,2013-04-16 06:05:00,
2013-04-16 00:10:00,21.0,17.2,23.95,NNE,31,3.1,3.6,85,0.00,,---,0.00,VWS V14.01,2013-04-16 06:10:00,
2013-04-16 00:15:00,21.0,17.2,23.95,North,8,2.7,4.0,85,0.00,,---,0.00,VWS V14.01,2013-04-16 06:15:00,
2013-04-16 00:20:00,21.0,17.2,23.95,East,85,2.2,2.2,85,0.00,,---,0.00,VWS V14.01,2013-04-16 06:20:00,
2013-04-16 00:25:00,21.0,17.2,23.95,ESE,105,3.1,3.1,85,0.00,,---,0.00,VWS V14.01,2013-04-16 06:25:00,
2013-04-16 00:30:00,21.0,17.2,23.95,East,101,0.0,0.0,85,0.00,,---,0.00,VWS V14.01,2013-04-16 06:30:00,
2013-04-16 00:36:00,21.2,17.4,23.95,NE,56,0.0,0.0,85,0.00,,---,0.00,VWS V14.01,2013-04-16 06:36:00,
2013-04-16 00:41:00,21.2,17.4,23.95,NE,50,0.0,0.0,85,0.00,,---,0.00,VWS V14.01,2013-04-16 06:41:00,
2013-04-16 00:46:00,21.2,17.4,23.95,ENE,72,2.7,3.6,85,0.00,,---,0.00,VWS V14.01,2013-04-16 06:46:00,
2013-04-16 00:51:00,21.2,17.4,23.95,East,98,2.2,2.7,85,0.00,,---,0.00,VWS V14.01,2013-04-16 06:51:00,
2013-04-16 00:56:00,21.2,17.4,23.95,ESE,115,0.0,2.7,85,0.00,,---,0.00,VWS V14.01,2013-04-16 06:56:00,
2013-04-16 01:02:00,21.2,17.4,23.95,East,92,2.7,2.7,85,0.00,,---,0.00,VWS V14.01,2013-04-16 07:02:00,
2013-04-16 01:08:00,21.2,17.4,23.95,NE,48,0.0,0.0,85,0.00,,---,0.00,VWS V14.01,2013-04-16 07:08:00,
2013-04-16 01:13:00,21.2,17.4,23.95,ESE,102,3.1,3.1,85,0.00,,---,0.00,VWS V14.01,2013-04-16 07:13:00,
2013-04-16 01:18:00,21.2,17.4,23.95,ENE,64,3.1,3.1,85,0.00,,---,0.00,VWS V14.01,2013-04-16 07:18:00,
2013-04-16 01:23:00,21.2,17.4,23.95,ENE,70,0.0,2.7,85,0.00,,---,0.00,VWS V14.01,2013-04-16 07:23:00,
2013-04-16 01:28:00,21.2,17.4,23.95,ESE,106,0.0,0.0,85,0.00,,---,0.00,VWS V14.01,2013-04-16 07:28:00,
2013-04-16 01:34:00,21.2,17.4,23.95,East,88,0.0,0.0,85,0.00,,---,0.00,VWS V14.01,2013-04-16 07:34:00,
2013-04-16 01:39:00,21.2,17.4,23.95,NE,56,0.0,0.0,85,0.00,,---,0.00,VWS V14.01,2013-04-16 07:39:00,
2013-04-16 01:44:00,21.2,17.4,23.95,NE,56,0.0,0.0,85,0.00,,---,0.00,VWS V14.01,2013-04-16 07:44:00,
2013-04-16 01:49:00,21.2,17.4,23.95,NE,56,0.0,0.0,85,0.00,,---,0.00,VWS V14.01,2013-04-16 07:49:00,
2013-04-16 01:55:00,21.2,17.4,23.95,NE,56,0.0,0.0,85,0.00,,---,0.00,VWS V14.01,2013-04-16 07:55:00,
2013-04-16 02:01:00,21.2,17.4,23.95,NE,56,0.0,0.0,85,0.00,,---,0.00,VWS V14.01,2013-04-16 08:01:00,
2013-04-16 02:07:00,21.2,17.4,23.95,NE,56,0.0,0.0,85,0.00,,---,0.00,VWS V14.01,2013-04-16 08:07:00,
2013-04-16 02:13:00,21.2,17.4,23.95,NE,56,0.0,0.0,85,0.00,,---,0.00,VWS V14.01,2013-04-16 08:13:00,
2013-04-16 02:19:00,21.4,17.6,23.95,NE,56,0.0,0.0,85,0.00,,---,0.00,VWS V14.01,2013-04-16 08:19:00,
2013-04-16 02:24:00,21.4,17.6,23.95,NE,56,0.0,0.0,85,0.00,,---,0.00,VWS V14.01,2013-04-16 08:24:00,
2013-04-16 02:29:00,21.4,17.6,23.92,NE,56,0.0,0.0,85,0.00,,---,0.00,VWS V14.01,2013-04-16 08:29:00,
2013-04-16 02:35:00,21.4,17.6,23.92,NE,56,0.0,0.0,85,0.00,,---,0.00,VWS V14.01,2013-04-16 08:35:00,
2013-04-16 02:40:00,21.4,17.6,23.92,NE,56,0.0,0.0,85,0.00,,---,0.00,VWS V14.01,2013-04-16 08:40:00,
2013-04-16 02:45:00,21.4,17.6,23.92,NE,56,0.0,0.0,85,0.00,,---,0.00,VWS V14.01,2013-04-16 08:45:00,
2013-04-16 02:51:00,21.4,17.6,23.92,NE,56,0.0,0.0,85,0.00,,---,0.00,VWS V14.01,2013-04-16 08:51:00,
2013-04-16 02:57:00,21.4,17.6,23.92,NNE,19,2.2,4.9,85,0.00,,---,0.00,VWS V14.01,2013-04-16 08:57:00,
2013-04-16 03:03:00,21.4,17.6,23.92,North,357,3.1,5.4,85,0.00,,---,0.00,VWS V14.01,2013-04-16 09:03:00,
2013-04-16 03:08:00,21.2,17.4,23.92,NNE,23,5.4,5.4,85,0.00,,---,0.00,VWS V14.01,2013-04-16 09:08:00,
2013-04-16 03:14:00,21.2,17.4,23.92,North,7,5.8,5.8,85,0.00,,---,0.00,VWS V14.01,2013-04-16 09:14:00,
2013-04-16 03:19:00,21.2,17.4,23.92,North,5,4.5,4.5,85,0.00,,---,0.00,VWS V14.01,2013-04-16 09:19:00,
2013-04-16 03:25:00,21.2,17.4,23.92,NNE,15,4.9,5.8,85,0.00,,---,0.00,VWS V14.01,2013-04-16 09:25:00,
2013-04-16 03:31:00,21.2,17.4,23.92,NNE,25,3.1,3.6,85,0.00,,---,0.00,VWS V14.01,2013-04-16 09:31:00,
2013-04-16 03:36:00,21.2,17.4,23.92,East,79,2.2,3.6,85,0.00,,---,0.00,VWS V14.01,2013-04-16 09:36:00,
2013-04-16 03:42:00,21.2,17.4,23.92,NE,37,3.1,3.1,85,0.00,,---,0.00,VWS V14.01,2013-04-16 09:42:00,
2013-04-16 03:47:00,21.2,17.4,23.92,North,4,4.0,4.9,85,0.00,,---,0.00,VWS V14.01,2013-04-16 09:47:00,
2013-04-16 03:52:00,21.2,17.4,23.92,NE,48,2.7,4.0,85,0.00,,---,0.00,VWS V14.01,2013-04-16 09:52:00,
2013-04-16 03:58:00,21.2,17.4,23.92,ENE,75,3.6,3.6,85,0.00,,---,0.00,VWS V14.01,2013-04-16 09:58:00,
2013-04-16 04:03:00,21.4,17.6,23.92,NE,53,2.7,2.7,85,0.00,,---,0.00,VWS V14.01,2013-04-16 10:03:00,
2013-04-16 04:09:00,21.4,17.6,23.92,NE,44,0.0,0.0,85,0.00,,---,0.00,VWS V14.01,2013-04-16 10:09:00,
2013-04-16 04:14:00,21.4,17.6,23.92,ESE,120,3.1,3.1,85,0.00,,---,0.00,VWS V14.01,2013-04-16 10:14:00,
2013-04-16 04:19:00,21.4,17.6,23.92,East,93,2.2,2.2,85,0.00,,---,0.00,VWS V14.01,2013-04-16 10:19:00,
2013-04-16 04:24:00,21.4,17.6,23.92,East,93,0.0,0.0,85,0.00,,---,0.00,VWS V14.01,2013-04-16 10:24:00,
2013-04-16 04:29:00,21.2,17.4,23.92,ESE,115,2.2,4.9,85,0.00,,---,0.00,VWS V14.01,2013-04-16 10:29:00,
2013-04-16 04:34:00,21.2,17.4,23.92,SSE,150,2.2,3.6,85,0.00,,---,0.00,VWS V14.01,2013-04-16 10:34:00,
2013-04-16 04:40:00,21.2,17.4,23.92,North,8,0.0,0.0,85,0.00,,---,0.00,VWS V14.01,2013-04-16 10:40:00,
2013-04-16 04:45:00,21.4,17.6,23.89,NE,34,3.1,3.6,85,0.00,,---,0.00,VWS V14.01,2013-04-16 10:45:00,
2013-04-16 04:50:00,21.4,17.6,23.89,North,0,3.1,4.0,85,0.00,,---,0.00,VWS V14.01,2013-04-16 10:50:00,
2013-04-16 04:55:00,21.4,17.6,23.89,NE,40,2.7,4.0,85,0.00,,---,0.00,VWS V14.01,2013-04-16 10:55:00,
2013-04-16 05:01:00,21.4,17.6,23.89,ENE,58,2.7,3.6,85,0.00,,---,0.00,VWS V14.01,2013-04-16 11:01:00,
2013-04-16 05:07:00,21.4,17.6,23.89,East,84,3.1,3.1,85,0.00,,---,0.00,VWS V14.01,2013-04-16 11:07:00,
2013-04-16 05:12:00,21.4,17.6,23.89,North,357,3.1,4.9,85,0.00,,---,0.00,VWS V14.01,2013-04-16 11:12:00,
2013-04-16 05:17:00,21.4,17.6,23.89,NE,49,2.7,3.1,85,0.00,,---,0.00,VWS V14.01,2013-04-16 11:17:00,
2013-04-16 05:22:00,21.4,17.6,23.89,ENE,63,3.6,4.0,85,0.00,,---,0.00,VWS V14.01,2013-04-16 11:22:00,
2013-04-16 05:28:00,21.4,17.6,23.89,NE,42,5.4,5.4,85,0.00,,---,0.00,VWS V14.01,2013-04-16 11:28:00,
2013-04-16 05:34:00,21.4,17.6,23.89,NNE,32,3.6,4.9,85,0.00,,---,0.00,VWS V14.01,2013-04-16 11:34:00,
2013-04-16 05:40:00,21.2,17.4,23.89,NE,50,5.4,5.4,85,0.00,,---,0.00,VWS V14.01,2013-04-16 11:40:00,
2013-04-16 05:45:00,21.2,17.4,23.89,NE,50,4.0,6.3,85,0.00,,---,0.00,VWS V14.01,2013-04-16 11:45:00,
2013-04-16 05:51:00,21.2,17.4,23.89,NE,42,3.1,5.4,85,0.00,,---,0.00,VWS V14.01,2013-04-16 11:51:00,
2013-04-16 05:56:00,21.2,17.4,23.89,NE,38,3.1,5.4,85,0.00,,---,0.00,VWS V14.01,2013-04-16 11:56:00,
2013-04-16 06:01:00,21.2,17.4,23.89,North,9,3.6,4.0,85,0.00,,---,0.00,VWS V14.01,2013-04-16 12:01:00,
2013-04-16 06:07:00,21.2,17.4,23.89,NE,49,3.1,4.0,85,0.00,,---,0.00,VWS V14.01,2013-04-16 12:07:00,
2013-04-16 06:12:00,21.2,17.4,23.89,NE,45,2.7,3.6,85,0.00,,---,0.00,VWS V14.01,2013-04-16 12:12:00,
2013-04-16 06:17:00,21.4,17.6,23.89,ENE,60,0.0,0.0,85,0.00,,---,0.00,VWS V14.01,2013-04-16 12:17:00,
2013-04-16 06:23:00,21.4,17.6,23.89,NE,43,7.6,7.6,85,0.00,,---,0.00,VWS V14.01,2013-04-16 12:23:00,
2013-04-16 06:28:00,21.4,17.6,23.89,NE,45,3.1,6.3,85,0.00,,---,0.00,VWS V14.01,2013-04-16 12:28:00,
2013-04-16 06:33:00,21.4,17.6,23.89,North,357,0.0,3.1,85,0.00,,---,0.00,VWS V14.01,2013-04-16 12:33:00,
2013-04-16 06:39:00,21.4,17.6,23.89,NE,51,0.0,2.7,85,0.00,,---,0.00,VWS V14.01,2013-04-16 12:39:00,
2013-04-16 06:44:00,21.4,17.6,23.89,NNW,345,4.0,5.4,85,0.00,,---,0.00,VWS V14.01,2013-04-16 12:44:00,
2013-04-16 06:50:00,21.4,17.6,23.89,NE,38,4.0,4.0,85,0.00,,---,0.00,VWS V14.01,2013-04-16 12:50:00,
2013-04-16 06:56:00,21.4,17.6,23.89,East,99,4.0,4.9,85,0.00,,---,0.00,VWS V14.01,2013-04-16 12:56:00,
2013-04-16 07:02:00,21.4,17.6,23.89,NE,45,4.5,5.4,85,0.00,,---,0.00,VWS V14.01,2013-04-16 13:02:00,
2013-04-16 07:07:00,21.4,17.6,23.89,North,0,3.6,4.0,85,0.00,,---,0.00,VWS V14.01,2013-04-16 13:07:00,
2013-04-16 07:12:00,21.6,17.8,23.89,ENE,59,4.9,4.9,85,0.00,,---,0.00,VWS V14.01,2013-04-16 13:12:00,
2013-04-16 07:17:00,21.6,17.8,23.89,North,5,2.7,4.0,85,0.00,,---,0.00,VWS V14.01,2013-04-16 13:17:00,
2013-04-16 07:22:00,21.6,17.8,23.89,North,1,3.1,5.8,85,0.00,,---,0.00,VWS V14.01,2013-04-16 13:22:00,
2013-04-16 07:27:00,21.6,17.8,23.89,North,0,3.6,4.9,85,0.00,,---,0.00,VWS V14.01,2013-04-16 13:27:00,
2013-04-16 07:32:00,21.6,17.8,23.89,NNE,22,3.1,4.9,85,0.00,,---,0.00,VWS V14.01,2013-04-16 13:32:00,
2013-04-16 07:38:00,21.7,17.9,23.89,NNE,31,3.1,4.9,85,0.00,,---,0.00,VWS V14.01,2013-04-16 13:38:00,
2013-04-16 07:43:00,21.7,17.9,23.89,North,357,3.1,3.1,85,0.00,,---,0.00,VWS V14.01,2013-04-16 13:43:00,
2013-04-16 07:48:00,21.7,17.9,23.89,ENE,65,3.6,5.4,85,0.00,,---,0.00,VWS V14.01,2013-04-16 13:48:00,
2013-04-16 07:53:00,21.9,18.1,23.89,NE,55,4.0,5.4,85,0.00,,---,0.00,VWS V14.01,2013-04-16 13:53:00,
2013-04-16 07:58:00,21.9,18.1,23.89,ESE,117,2.7,2.7,85,0.00,,---,0.00,VWS V14.01,2013-04-16 13:58:00,
2013-04-16 08:04:00,22.1,18.3,23.89,ENE,59,4.0,4.9,85,0.00,,---,0.00,VWS V14.01,2013-04-16 14:04:00,
2013-04-16 08:09:00,22.1,18.3,23.89,North,353,2.7,4.0,85,0.00,,---,0.00,VWS V14.01,2013-04-16 14:09:00,
2013-04-16 08:15:00,22.1,18.3,23.89,NNE,31,2.7,4.0,85,0.00,,---,0.00,VWS V14.01,2013-04-16 14:15:00,
2013-04-16 08:20:00,22.3,18.7,23.89,ENE,59,3.6,3.6,86,0.00,,---,0.00,VWS V14.01,2013-04-16 14:20:00,
2013-04-16 08:25:00,22.3,18.7,23.89,NE,42,2.7,2.7,86,0.00,,---,0.00,VWS V14.01,2013-04-16 14:25:00,
2013-04-16 08:31:00,22.6,19.1,23.89,NNE,17,2.7,4.9,86,0.00,,---,0.00,VWS V14.01,2013-04-16 14:31:00,
2013-04-16 08:36:00,22.8,19.3,23.89,ENE,57,0.0,0.0,86,0.00,,---,0.00,VWS V14.01,2013-04-16 14:36:00,
2013-04-16 08:42:00,23.0,19.5,23.89,NE,44,2.7,3.6,86,0.00,,---,0.00,VWS V14.01,2013-04-16 14:42:00,
2013-04-16 08:48:00,23.4,19.8,23.89,ESE,115,2.7,3.6,86,0.00,,---,0.00,VWS V14.01,2013-04-16 14:48:00,
2013-04-16 08:53:00,23.5,20.0,23.89,ESE,111,3.1,4.0,86,0.00,,---,0.00,VWS V14.01,2013-04-16 14:53:00,
2013-04-16 08:58:00,23.9,20.3,23.89,East,92,3.1,3.6,86,0.00,,---,0.00,VWS V14.01,2013-04-16 14:58:00,
2013-04-16 09:04:00,23.7,20.1,23.89,ENE,77,3.6,4.0,86,0.00,,---,0.00,VWS V14.01,2013-04-16 15:04:00,
2013-04-16 09:09:00,24.1,20.8,23.89,ENE,64,2.7,3.6,87,0.00,,---,0.00,VWS V14.01,2013-04-16 15:09:00,
2013-04-16 09:15:00,24.4,21.1,23.89,ENE,63,4.0,4.0,87,0.00,,---,0.00,VWS V14.01,2013-04-16 15:15:00,
2013-04-16 09:21:00,24.4,21.1,23.89,ENE,68,3.6,4.0,87,0.00,,---,0.00,VWS V14.01,2013-04-16 15:21:00,
2013-04-16 09:26:00,24.4,21.1,23.89,ENE,68,3.6,3.6,87,0.00,,---,0.00,VWS V14.01,2013-04-16 15:26:00,
2013-04-16 09:32:00,24.6,21.3,23.86,ENE,77,4.0,4.0,87,0.00,,---,0.00,VWS V14.01,2013-04-16 15:32:00,
2013-04-16 09:38:00,24.6,21.3,23.86,East,81,3.6,4.0,87,0.00,,---,0.00,VWS V14.01,2013-04-16 15:38:00,
2013-04-16 09:44:00,24.8,21.5,23.86,East,85,4.9,6.3,87,0.00,,---,0.00,VWS V14.01,2013-04-16 15:44:00,
2013-04-16 09:50:00,25.0,21.7,23.86,East,85,3.1,3.1,87,0.00,,---,0.00,VWS V14.01,2013-04-16 15:50:00,
2013-04-16 09:55:00,25.2,21.8,23.86,NE,39,4.5,4.9,87,0.00,,---,0.00,VWS V14.01,2013-04-16 15:55:00,
2013-04-16 10:00:00,25.3,22.0,23.86,ENE,73,5.4,5.4,87,0.00,,---,0.00,VWS V14.01,2013-04-16 16:00:00,
2013-04-16 10:05:00,25.7,22.4,23.86,East,85,4.0,4.0,87,0.00,,---,0.00,VWS V14.01,2013-04-16 16:05:00,
2013-04-16 10:10:00,25.5,22.2,23.86,NNE,16,2.7,3.6,87,0.00,,---,0.00,VWS V14.01,2013-04-16 16:10:00,
2013-04-16 10:15:00,25.7,22.4,23.86,NE,56,4.0,5.4,87,0.00,,---,0.00,VWS V14.01,2013-04-16 16:15:00,
2013-04-16 10:20:00,25.7,22.4,23.86,ENE,77,5.4,5.4,87,0.00,,---,0.00,VWS V14.01,2013-04-16 16:20:00,
2013-04-16 10:25:00,25.9,22.8,23.86,ENE,61,4.0,4.0,88,0.00,,---,0.00,VWS V14.01,2013-04-16 16:25:00,
2013-04-16 10:30:00,25.9,22.8,23.86,NNE,12,2.7,5.4,88,0.00,,---,0.00,VWS V14.01,2013-04-16 16:30:00,
2013-04-16 10:35:00,25.9,22.8,23.86,NE,44,5.8,7.6,88,0.00,,---,0.00,VWS V14.01,2013-04-16 16:35:00,
2013-04-16 10:41:00,25.5,22.5,23.86,ENE,70,7.6,7.6,88,0.00,,---,0.00,VWS V14.01,2013-04-16 16:41:00,
2013-04-16 10:46:00,25.3,22.3,23.86,NNE,30,4.0,5.4,88,0.00,,---,0.00,VWS V14.01,2013-04-16 16:46:00,
2013-04-16 10:52:00,25.3,22.0,23.86,NNE,23,5.8,8.3,87,0.00,,---,0.00,VWS V14.01,2013-04-16 16:52:00,
2013-04-16 10:57:00,25.3,22.0,23.86,ENE,57,3.6,6.3,87,0.00,,---,0.00,VWS V14.01,2013-04-16 16:57:00,
2013-04-16 11:02:00,25.5,22.2,23.86,NE,45,5.4,5.4,87,0.00,,---,0.00,VWS V14.01,2013-04-16 17:02:00,
2013-04-16 11:08:00,26.1,23.0,23.86,ENE,76,3.6,8.1,88,0.00,,---,0.00,VWS V14.01,2013-04-16 17:08:00,
2013-04-16 11:14:00,26.2,23.2,23.86,NE,48,4.0,5.8,88,0.00,,---,0.00,VWS V14.01,2013-04-16 17:14:00,
2013-04-16 11:19:00,26.4,23.4,23.86,NE,49,5.4,5.8,88,0.00,,---,0.00,VWS V14.01,2013-04-16 17:19:00,
2013-04-16 11:24:00,26.6,23.5,23.86,ENE,64,3.6,8.1,88,0.00,,---,0.00,VWS V14.01,2013-04-16 17:24:00,
2013-04-16 11:30:00,27.0,23.6,23.86,NE,46,4.9,5.8,87,0.00,,---,0.00,VWS V14.01,2013-04-16 17:30:00,
2013-04-16 11:35:00,27.1,23.8,23.86,ENE,63,5.4,8.3,87,0.00,,---,0.00,VWS V14.01,2013-04-16 17:35:00,
2013-04-16 11:41:00,27.1,23.8,23.86,NE,45,6.3,8.1,87,0.00,,---,0.00,VWS V14.01,2013-04-16 17:41:00,
2013-04-16 11:47:00,27.3,24.0,23.86,ENE,63,5.4,7.6,87,0.00,,---,0.00,VWS V14.01,2013-04-16 17:47:00,
2013-04-16 11:52:00,27.1,23.8,23.86,NE,35,7.6,8.3,87,0.00,,---,0.00,VWS V14.01,2013-04-16 17:52:00,
2013-04-16 11:58:00,27.0,23.6,23.83,NNE,22,4.0,8.3,87,0.00,,---,0.00,VWS V14.01,2013-04-16 17:58:00,
2013-04-16 12:03:00,27.0,23.6,23.83,North,5,4.0,9.2,87,0.00,,---,0.00,VWS V14.01,2013-04-16 18:03:00,
2013-04-16 12:09:00,27.1,23.8,23.83,NE,53,4.9,5.8,87,0.00,,---,0.00,VWS V14.01,2013-04-16 18:09:00,
2013-04-16 12:14:00,27.3,24.0,23.83,NNE,21,5.8,6.3,87,0.00,,---,0.00,VWS V14.01,2013-04-16 18:14:00,
2013-04-16 12:20:00,27.1,23.8,23.83,NE,40,4.0,8.3,87,0.00,,---,0.00,VWS V14.01,2013-04-16 18:20:00,
2013-04-16 12:25:00,27.0,23.6,23.83,NE,52,7.2,7.2,87,0.00,,---,0.00,VWS V14.01,2013-04-16 18:25:00,
2013-04-16 12:30:00,27.0,23.6,23.83,ENE,63,3.6,6.3,87,0.00,,---,0.00,VWS V14.01,2013-04-16 18:30:00,
2013-04-16 12:35:00,27.1,23.8,23.83,East,89,7.2,7.2,87,0.00,,---,0.00,VWS V14.01,2013-04-16 18:35:00,
2013-04-16 12:40:00,27.3,24.0,23.83,NE,36,6.3,6.3,87,0.00,,---,0.00,VWS V14.01,2013-04-16 18:40:00,
2013-04-16 12:46:00,27.5,24.1,23.83,NNE,24,5.4,8.3,87,0.00,,---,0.00,VWS V14.01,2013-04-16 18:46:00,
2013-04-16 12:51:00,27.3,24.0,23.83,NE,50,5.8,7.6,87,0.00,,---,0.00,VWS V14.01,2013-04-16 18:51:00,
2013-04-16 12:56:00,27.7,24.3,23.83,NNE,31,3.6,8.1,87,0.00,,---,0.00,VWS V14.01,2013-04-16 18:56:00,
2013-04-16 13:02:00,27.5,24.1,23.83,NNE,13,8.1,10.5,87,0.00,,---,0.00,VWS V14.01,2013-04-16 19:02:00,
2013-04-16 13:07:00,27.5,24.1,23.83,North,7,8.7,11.0,87,0.00,,---,0.00,VWS V14.01,2013-04-16 19:07:00,
2013-04-16 13:13:00,27.9,24.5,23.83,NNE,16,7.6,8.3,87,0.00,,---,0.00,VWS V14.01,2013-04-16 19:13:00,
2013-04-16 13:19:00,27.9,24.5,23.83,NNE,24,5.4,9.6,87,0.00,,---,0.00,VWS V14.01,2013-04-16 19:19:00,
2013-04-16 13:24:00,27.9,24.5,23.83,NNE,31,9.6,9.6,87,0.00,,---,0.00,VWS V14.01,2013-04-16 19:24:00,
2013-04-16 13:30:00,28.2,24.9,23.83,NE,51,3.1,7.6,87,0.00,,---,0.00,VWS V14.01,2013-04-16 19:30:00,
2013-04-16 13:36:00,28.6,25.2,23.83,ENE,68,8.7,8.7,87,0.00,,---,0.00,VWS V14.01,2013-04-16 19:36:00,
2013-04-16 13:43:00,28.6,25.2,23.80,North,1,7.6,8.3,87,0.00,,---,0.00,VWS V14.01,2013-04-16 19:43:00,
2013-04-16 13:48:00,28.6,25.2,23.80,NNE,31,4.0,7.6,87,0.00,,---,0.00,VWS V14.01,2013-04-16 19:48:00,
2013-04-16 13:53:00,28.6,25.2,23.80,NE,46,5.4,9.6,87,0.00,,---,0.00,VWS V14.01,2013-04-16 19:53:00,
2013-04-16 13:58:00,28.8,25.4,23.80,NNE,12,5.4,8.1,87,0.00,,---,0.00,VWS V14.01,2013-04-16 19:58:00,
2013-04-16 14:03:00,28.8,25.4,23.80,NE,40,4.0,7.6,87,0.00,,---,0.00,VWS V14.01,2013-04-16 20:03:00,
2013-04-16 14:09:00,28.8,25.4,23.80,NE,37,4.0,7.6,87,0.00,,---,0.00,VWS V14.01,2013-04-16 20:09:00,
2013-04-16 14:14:00,28.8,25.4,23.80,NE,56,7.6,8.3,87,0.00,,---,0.00,VWS V14.01,2013-04-16 20:14:00,
2013-04-16 14:19:00,28.6,24.9,23.80,East,84,6.3,7.2,86,0.00,,---,0.00,VWS V14.01,2013-04-16 20:19:00,
2013-04-16 14:25:00,28.6,24.9,23.80,East,88,5.4,8.1,86,0.00,,---,0.00,VWS V14.01,2013-04-16 20:25:00,
2013-04-16 14:30:00,28.6,24.9,23.80,East,91,6.3,6.3,86,0.00,,---,0.00,VWS V14.01,2013-04-16 20:30:00,
2013-04-16 14:35:00,28.4,24.8,23.80,North,5,4.9,8.1,86,0.00,,---,0.00,VWS V14.01,2013-04-16 20:35:00,
2013-04-16 14:40:00,28.4,24.8,23.80,ESE,105,4.9,8.3,86,0.00,,---,0.00,VWS V14.01,2013-04-16 20:40:00,
2013-04-16 14:45:00,28.4,24.8,23.80,East,84,3.1,5.4,86,0.00,,---,0.00,VWS V14.01,2013-04-16 20:45:00,
2013-04-16 14:52:00,28.6,24.9,23.80,NW,321,5.8,8.1,86,0.00,,---,0.00,VWS V14.01,2013-04-16 20:52:00,
2013-04-16 14:58:00,28.8,25.4,23.80,ESE,118,2.7,4.0,87,0.00,,---,0.00,VWS V14.01,2013-04-16 20:58:00,
2013-04-16 15:03:00,28.9,25.6,23.80,North,8,5.8,8.7,87,0.00,,---,0.00,VWS V14.01,2013-04-16 21:03:00,
2013-04-16 15:09:00,28.9,25.6,23.80,NE,43,4.0,4.0,87,0.00,,---,0.00,VWS V14.01,2013-04-16 21:09:00,
2013-04-16 15:14:00,28.8,25.4,23.83,NE,36,4.9,4.9,87,0.00,,---,0.00,VWS V14.01,2013-04-16 21:14:00,
2013-04-16 15:19:00,28.9,25.8,23.83,ENE,68,3.1,4.9,88,0.00,,---,0.00,VWS V14.01,2013-04-16 21:19:00,
2013-04-16 15:24:00,28.9,25.8,23.83,NNE,14,2.2,3.1,88,0.00,,---,0.00,VWS V14.01,2013-04-16 21:24:00,
2013-04-16 15:29:00,29.1,26.0,23.83,NNE,14,0.0,0.0,88,0.00,,---,0.00,VWS V14.01,2013-04-16 21:29:00,
2013-04-16 15:34:00,29.3,26.2,23.83,North,349,0.0,3.1,88,0.00,,---,0.00,VWS V14.01,2013-04-16 21:34:00,
2013-04-16 15:39:00,29.5,26.6,23.83,North,349,0.0,0.0,89,0.00,,---,0.00,VWS V14.01,2013-04-16 21:39:00,
2013-04-16 15:45:00,29.8,27.0,23.83,North,349,0.0,0.0,89,0.00,,---,0.00,VWS V14.01,2013-04-16 21:45:00,
2013-04-16 15:51:00,30.0,27.2,23.83,North,349,0.0,0.0,89,0.00,,---,0.00,VWS V14.01,2013-04-16 21:51:00,
2013-04-16 15:56:00,30.0,27.2,23.83,North,349,0.0,0.0,89,0.00,,---,0.00,VWS V14.01,2013-04-16 21:56:00,
2013-04-16 16:01:00,30.0,27.2,23.83,North,349,0.0,0.0,89,0.00,,---,0.00,VWS V14.01,2013-04-16 22:01:00,
2013-04-16 16:06:00,30.2,27.6,23.83,North,349,0.0,0.0,90,0.00,,---,0.00,VWS V14.01,2013-04-16 22:06:00,
2013-04-16 16:11:00,30.4,27.5,23.83,North,349,0.0,0.0,89,0.00,,---,0.00,VWS V14.01,2013-04-16 22:11:00,
2013-04-16 16:16:00,30.4,27.5,23.83,North,349,0.0,0.0,89,0.00,,---,0.00,VWS V14.01,2013-04-16 22:16:00,
2013-04-16 16:22:00,30.4,27.5,23.83,North,349,0.0,0.0,89,0.00,,---,0.00,VWS V14.01,2013-04-16 22:22:00,
2013-04-16 16:27:00,30.4,27.8,23.83,North,349,0.0,0.0,90,0.00,,---,0.00,VWS V14.01,2013-04-16 22:27:00,
2013-04-16 16:32:00,30.6,28.0,23.83,North,350,0.0,0.0,90,0.00,,---,0.00,VWS V14.01,2013-04-16 22:32:00,
2013-04-16 16:37:00,30.6,28.0,23.83,North,350,0.0,0.0,90,0.00,,---,0.00,VWS V14.01,2013-04-16 22:37:00,
2013-04-16 16:42:00,30.4,27.8,23.83,North,353,2.2,2.2,90,0.00,,---,0.00,VWS V14.01,2013-04-16 22:42:00,
2013-04-16 16:47:00,30.2,27.6,23.83,North,353,3.1,3.1,90,0.00,,---,0.00,VWS V14.01,2013-04-16 22:47:00,
2013-04-16 16:52:00,30.2,27.9,23.83,North,353,0.0,0.0,91,0.00,,---,0.00,VWS V14.01,2013-04-16 22:52:00,
2013-04-16 16:58:00,30.2,27.9,23.83,North,353,0.0,0.0,91,0.00,,---,0.00,VWS V14.01,2013-04-16 22:58:00,
2013-04-16 17:03:00,30.2,27.9,23.83,SSE,152,2.7,5.4,91,0.00,,---,0.00,VWS V14.01,2013-04-16 23:03:00,
2013-04-16 17:08:00,30.2,27.9,23.83,ESE,122,3.1,4.9,91,0.00,,---,0.00,VWS V14.01,2013-04-16 23:08:00,
2013-04-16 17:14:00,30.0,27.7,23.83,ESE,110,2.7,4.0,91,0.00,,---,0.00,VWS V14.01,2013-04-16 23:14:00,
2013-04-16 17:19:00,30.2,27.9,23.83,NNW,341,0.0,0.0,91,0.00,,---,0.00,VWS V14.01,2013-04-16 23:19:00,
2013-04-16 17:24:00,30.2,27.9,23.83,NNW,341,0.0,0.0,91,0.00,,---,0.00,VWS V14.01,2013-04-16 23:24:00,
2013-04-16 17:29:00,30.2,27.9,23.83,SW,222,0.0,2.7,91,0.00,,---,0.00,VWS V14.01,2013-04-16 23:29:00,
2013-04-16 17:35:00,30.0,27.7,23.83,SE,145,0.0,2.7,91,0.00,,---,0.00,VWS V14.01,2013-04-16 23:35:00,
2013-04-16 17:40:00,30.0,27.7,23.83,SSE,159,5.4,5.4,91,0.00,,---,0.00,VWS V14.01,2013-04-16 23:40:00,
2013-04-16 17:46:00,29.8,27.5,23.86,South,186,3.1,3.1,91,0.00,,---,0.00,VWS V14.01,2013-04-16 23:46:00,
2013-04-16 17:52:00,29.8,27.5,23.86,SE,137,2.2,2.2,91,0.00,,---,0.00,VWS V14.01,2013-04-16 23:52:00,
2013-04-16 17:57:00,30.0,28.0,23.86,South,178,4.0,4.0,92,0.00,,---,0.00,VWS V14.01,2013-04-16 23:57:00,
2013-04-16 18:02:00,30.0,28.0,23.86,South,177,0.0,0.0,92,0.00,,---,0.00,VWS V14.01,2013-04-17 00:02:00,
2013-04-16 18:07:00,30.0,28.0,23.86,South,177,0.0,0.0,92,0.00,,---,0.00,VWS V14.01,2013-04-17 00:07:00,
2013-04-16 18:12:00,30.2,28.2,23.86,South,177,0.0,0.0,92,0.00,,---,0.00,VWS V14.01,2013-04-17 00:12:00,
2013-04-16 18:17:00,30.2,28.2,23.86,South,177,0.0,0.0,92,0.00,,---,0.00,VWS V14.01,2013-04-17 00:17:00,
2013-04-16 18:23:00,30.2,28.2,23.86,South,177,0.0,0.0,92,0.00,,---,0.00,VWS V14.01,2013-04-17 00:23:00,
2013-04-16 18:28:00,30.2,28.2,23.86,South,177,0.0,0.0,92,0.00,,---,0.00,VWS V14.01,2013-04-17 00:28:00,
2013-04-16 18:33:00,30.2,28.4,23.86,South,177,0.0,0.0,93,0.00,,---,0.00,VWS V14.01,2013-04-17 00:33:00,
2013-04-16 18:39:00,30.2,28.4,23.86,South,177,0.0,0.0,93,0.00,,---,0.00,VWS V14.01,2013-04-17 00:39:00,
2013-04-16 18:44:00,30.2,28.4,23.86,South,177,0.0,0.0,93,0.00,,---,0.00,VWS V14.01,2013-04-17 00:44:00,
2013-04-16 18:49:00,30.2,28.4,23.86,South,177,0.0,0.0,93,0.00,,---,0.00,VWS V14.01,2013-04-17 00:49:00,
2013-04-16 18:54:00,30.2,28.4,23.86,South,177,0.0,0.0,93,0.00,,---,0.00,VWS V14.01,2013-04-17 00:54:00,
2013-04-16 19:00:00,30.0,28.2,23.86,SSW,194,0.0,2.2,93,0.00,,---,0.00,VWS V14.01,2013-04-17 01:00:00,
2013-04-16 19:05:00,30.2,28.4,23.86,South,185,0.0,0.0,93,0.00,,---,0.00,VWS V14.01,2013-04-17 01:05:00,
2013-04-16 19:11:00,30.2,28.4,23.86,SE,146,0.0,0.0,93,0.00,,---,0.00,VWS V14.01,2013-04-17 01:11:00,
2013-04-16 19:17:00,30.2,28.4,23.86,SE,146,0.0,0.0,93,0.00,,---,0.00,VWS V14.01,2013-04-17 01:17:00,
2013-04-16 19:22:00,30.4,28.6,23.86,SE,146,0.0,0.0,93,0.00,,---,0.00,VWS V14.01,2013-04-17 01:22:00,
2013-04-16 19:27:00,30.4,28.6,23.86,SE,146,0.0,0.0,93,0.00,,---,0.00,VWS V14.01,2013-04-17 01:27:00,
2013-04-16 19:32:00,30.4,28.6,23.86,SE,146,0.0,0.0,93,0.00,,---,0.00,VWS V14.01,2013-04-17 01:32:00,
2013-04-16 19:37:00,30.4,28.6,23.86,SE,146,0.0,0.0,93,0.00,,---,0.00,VWS V14.01,2013-04-17 01:37:00,
2013-04-16 19:42:00,30.4,28.6,23.86,SE,146,0.0,0.0,93,0.00,,---,0.00,VWS V14.01,2013-04-17 01:42:00,
2013-04-16 19:48:00,30.2,28.7,23.86,SE,146,0.0,0.0,94,0.00,,---,0.00,VWS V14.01,2013-04-17 01:48:00,
2013-04-16 19:54:00,30.4,28.6,23.86,SE,145,0.0,0.0,93,0.00,,---,0.00,VWS V14.01,2013-04-17 01:54:00,
2013-04-16 20:00:00,30.4,28.6,23.89,SE,145,0.0,0.0,93,0.00,,---,0.00,VWS V14.01,2013-04-17 02:00:00,
2013-04-16 20:06:00,30.4,28.6,23.89,SE,145,0.0,0.0,93,0.00,,---,0.00,VWS V14.01,2013-04-17 02:06:00,
2013-04-16 20:12:00,30.2,28.7,23.89,SE,145,0.0,0.0,94,0.00,,---,0.00,VWS V14.01,2013-04-17 02:12:00,
2013-04-16 20:17:00,30.2,28.7,23.89,SE,145,0.0,0.0,94,0.00,,---,0.00,VWS V14.01,2013-04-17 02:17:00,
2013-04-16 20:22:00,30.2,28.7,23.89,SE,145,0.0,0.0,94,0.00,,---,0.00,VWS V14.01,2013-04-17 02:22:00,
2013-04-16 20:28:00,30.2,28.7,23.89,SE,145,0.0,0.0,94,0.00,,---,0.00,VWS V14.01,2013-04-17 02:28:00,
2013-04-16 20:34:00,30.2,28.7,23.89,SE,145,0.0,0.0,94,0.00,,---,0.00,VWS V14.01,2013-04-17 02:34:00,
2013-04-16 20:39:00,30.2,28.7,23.89,North,10,2.2,2.7,94,0.00,,---,0.00,VWS V14.01,2013-04-17 02:39:00,
2013-04-16 20:44:00,30.4,28.9,23.89,East,86,2.2,5.8,94,0.00,,---,0.00,VWS V14.01,2013-04-17 02:44:00,
2013-04-16 20:49:00,30.4,28.9,23.89,NNE,23,4.0,6.3,94,0.00,,---,0.00,VWS V14.01,2013-04-17 02:49:00,
2013-04-16 20:54:00,30.4,28.9,23.89,NNW,333,2.7,4.9,94,0.00,,---,0.00,VWS V14.01,2013-04-17 02:54:00,
2013-04-16 21:00:00,30.4,28.9,23.89,NE,34,3.6,3.6,94,0.00,,---,0.00,VWS V14.01,2013-04-17 03:00:00,
2013-04-16 21:05:00,30.2,28.7,23.89,West,268,0.0,0.0,94,0.00,,---,0.00,VWS V14.01,2013-04-17 03:05:00,
2013-04-16 21:11:00,30.2,28.7,23.92,SE,128,2.7,5.4,94,0.00,,---,0.00,VWS V14.01,2013-04-17 03:11:00,
2013-04-16 21:16:00,29.8,28.3,23.92,SSE,160,5.4,6.3,94,0.00,,---,0.00,VWS V14.01,2013-04-17 03:16:00,
2013-04-16 21:21:00,29.7,28.1,23.92,North,1,6.3,8.1,94,0.00,,---,0.00,VWS V14.01,2013-04-17 03:21:00,
2013-04-16 21:26:00,29.5,28.0,23.92,NNW,333,5.4,10.1,94,0.00,,---,0.00,VWS V14.01,2013-04-17 03:26:00,
2013-04-16 21:32:00,29.1,27.6,23.92,NE,36,8.7,8.7,94,0.00,,---,0.00,VWS V14.01,2013-04-17 03:32:00,
2013-04-16 21:38:00,28.8,27.2,23.92,NNE,32,3.6,3.6,94,0.00,,---,0.00,VWS V14.01,2013-04-17 03:38:00,
2013-04-16 21:43:00,28.6,27.1,23.92,NE,54,5.4,7.6,94,0.00,,---,0.00,VWS V14.01,2013-04-17 03:43:00,
2013-04-16 21:48:00,28.2,26.7,23.92,East,92,4.9,5.4,94,0.00,,---,0.00,VWS V14.01,2013-04-17 03:48:00,
2013-04-16 21:53:00,28.0,26.5,23.92,NE,36,3.1,8.3,94,0.00,,---,0.00,VWS V14.01,2013-04-17 03:53:00,
2013-04-16 21:59:00,27.9,26.4,23.92,North,357,4.9,7.6,94,0.00,,---,0.00,VWS V14.01,2013-04-17 03:59:00,
2013-04-16 22:00:00,27.9,26.4,23.92,North,2,3.6,4.9,94,0.00,,---,0.00,VWS V14.01,2013-04-17 04:00:00,
2013-04-16 22:01:00,27.9,26.4,23.92,NE,49,5.8,7.6,94,0.00,,---,0.00,VWS V14.01,2013-04-17 04:01:00,
2013-04-16 22:02:00,27.9,26.4,23.92,NE,55,5.4,6.3,94,0.00,,---,0.00,VWS V14.01,2013-04-17 04:02:00,
2013-04-16 22:04:00,27.9,26.4,23.92,NE,44,3.1,11.0,94,0.00,,---,0.00,VWS V14.01,2013-04-17 04:04:00,
2013-04-16 22:06:00,27.9,26.4,23.92,ENE,64,7.6,10.5,94,0.00,,---,0.00,VWS V14.01,2013-04-17 04:06:00,
2013-04-16 22:12:00,27.5,26.0,23.92,North,5,5.8,8.1,94,0.00,,---,0.00,VWS V14.01,2013-04-17 04:12:00,
2013-04-16 22:17:00,27.3,25.8,23.92,North,2,4.5,4.5,94,0.00,,---,0.00,VWS V14.01,2013-04-17 04:17:00,
2013-04-16 22:22:00,27.3,25.8,23.92,NE,50,6.3,6.3,94,0.00,,---,0.00,VWS V14.01,2013-04-17 04:22:00,
2013-04-16 22:27:00,27.1,25.6,23.92,ENE,58,5.8,7.6,94,0.00,,---,0.00,VWS V14.01,2013-04-17 04:27:00,
2013-04-16 22:32:00,27.1,25.6,23.92,North,11,3.1,5.8,94,0.00,,---,0.00,VWS V14.01,2013-04-17 04:32:00,
2013-04-16 22:37:00,27.1,25.6,23.92,ENE,71,3.6,3.6,94,0.00,,---,0.00,VWS V14.01,2013-04-17 04:37:00,
2013-04-16 22:42:00,27.1,25.6,23.92,NE,41,3.6,4.0,94,0.00,,---,0.00,VWS V14.01,2013-04-17 04:42:00,
2013-04-16 22:48:00,27.1,25.6,23.92,North,8,4.5,4.5,94,0.00,,---,0.00,VWS V14.01,2013-04-17 04:48:00,
2013-04-16 22:53:00,27.1,25.6,23.92,East,82,3.6,3.6,94,0.00,,---,0.00,VWS V14.01,2013-04-17 04:53:00,
2013-04-16 22:59:00,27.1,25.6,23.92,ENE,68,0.0,0.0,94,0.00,,---,0.00,VWS V14.01,2013-04-17 04:59:00,
2013-04-16 23:04:00,27.1,25.6,23.92,East,101,0.0,3.1,94,0.00,,---,0.00,VWS V14.01,2013-04-17 05:04:00,
2013-04-16 23:10:00,27.3,25.8,23.92,East,101,0.0,0.0,94,0.00,,---,0.00,VWS V14.01,2013-04-17 05:10:00,
2013-04-16 23:15:00,27.3,25.8,23.92,NNE,21,2.2,3.6,94,0.00,,---,0.00,VWS V14.01,2013-04-17 05:15:00,
2013-04-16 23:20:00,27.3,25.8,23.92,NNE,21,0.0,2.7,94,0.00,,---,0.00,VWS V14.01,2013-04-17 05:20:00,
2013-04-16 23:26:00,27.3,25.8,23.92,ENE,63,0.0,0.0,94,0.00,,---,0.00,VWS V14.01,2013-04-17 05:26:00,
2013-04-16 23:32:00,27.3,25.6,23.92,ENE,76,0.0,0.0,93,0.00,,---,0.00,VWS V14.01,2013-04-17 05:32:00,
2013-04-16 23:37:00,27.1,25.4,23.92,ESE,104,3.6,3.6,93,0.00,,---,0.00,VWS V14.01,2013-04-17 05:37:00,
2013-04-16 23:42:00,27.1,25.4,23.92,ENE,59,2.2,3.6,93,0.00,,---,0.00,VWS V14.01,2013-04-17 05:42:00,
2013-04-16 23:48:00,27.0,25.2,23.92,NNE,32,0.0,3.1,93,0.00,,---,0.00,VWS V14.01,2013-04-17 05:48:00,
2013-04-16 23:53:00,27.0,25.2,23.92,North,5,3.1,3.1,93,0.00,,---,0.00,VWS V14.01,2013-04-17 05:53:00,
2013-04-16 23:58:00,27.0,25.2,23.92,ENE,64,3.6,3.6,93,0.00,,---,0.00,VWS V14.01,2013-04-17 05:58:00,